createdAt,value
2024-05-09T00:02:23.695Z,9
2024-05-09T00:05:23.957Z,9.1
2024-05-09T00:08:24.188Z,9.14
2024-05-09T00:11:25.084Z,9.18
2024-05-09T00:14:26.598Z,9.22
2024-05-09T00:17:25.184Z,9.22
2024-05-09T00:21:58.269Z,9.22
2024-05-09T00:23:30.141Z,9.21
2024-05-09T00:26:26.382Z,9.17
2024-05-09T00:29:26.853Z,9.1
2024-05-09T00:32:27.861Z,9.05
2024-05-09T00:35:29.402Z,9
2024-05-09T00:38:27.779Z,8.97
2024-05-09T00:41:28.220Z,8.91
2024-05-09T00:44:27.687Z,8.83
2024-05-09T00:47:28.815Z,8.76
2024-05-09T00:50:25.607Z,8.7
2024-05-09T00:53:28.153Z,8.64
2024-05-09T00:56:18.721Z,8.59
2024-05-09T00:59:24.223Z,8.53
2024-05-09T01:02:22.907Z,8.51
2024-05-09T01:05:24.416Z,8.47
2024-05-09T01:08:24.660Z,8.43
2024-05-09T01:11:25.579Z,8.37
2024-05-09T01:14:27.164Z,8.32
2024-05-09T01:17:28.665Z,8.3
2024-05-09T01:20:31.795Z,8.28
2024-05-09T01:23:25.776Z,8.26
2024-05-09T01:26:26.793Z,8.26
2024-05-09T01:29:28.430Z,8.27
2024-05-09T01:32:27.201Z,8.29
2024-05-09T01:35:28.996Z,8.3
2024-05-09T01:38:27.742Z,8.29
2024-05-09T01:41:28.961Z,8.22
2024-05-09T01:44:19.878Z,8.22
2024-05-09T01:47:28.602Z,8.2
2024-05-09T01:50:25.417Z,8.17
2024-05-09T01:53:21.126Z,8.14
2024-05-09T01:56:19.183Z,8.1
2024-05-09T01:59:11.777Z,8.07
2024-05-09T02:02:24.153Z,8.03
2024-05-09T02:05:22.978Z,7.99
2024-05-09T02:08:24.192Z,7.95
2024-05-09T02:11:24.608Z,7.92
2024-05-09T02:14:26.887Z,7.92
2024-05-09T02:17:27.016Z,7.89
2024-05-09T02:20:29.917Z,7.86
2024-05-09T02:23:26.271Z,7.82
2024-05-09T02:26:25.800Z,7.78
2024-05-09T02:29:26.960Z,7.73
2024-05-09T02:32:27.632Z,7.66
2024-05-09T02:35:28.723Z,7.56
2024-05-09T02:38:30.092Z,7.51
2024-05-09T02:41:28.805Z,7.51
2024-05-09T02:44:28.999Z,7.52
2024-05-09T02:47:19.962Z,7.52
2024-05-09T02:50:30.542Z,7.54
2024-05-09T02:53:19.296Z,7.55
2024-05-09T02:56:20.874Z,7.59
2024-05-09T02:59:09.859Z,7.58
2024-05-09T03:02:10.432Z,7.63
2024-05-09T03:05:12.201Z,7.68
2024-05-09T03:08:10.310Z,7.72
2024-05-09T03:11:12.263Z,7.74
2024-05-09T03:14:24.288Z,7.8
2024-05-09T03:17:23.206Z,7.83
2024-05-09T03:20:24.271Z,7.87
2024-05-09T03:23:23.257Z,7.9
2024-05-09T03:26:24.392Z,7.93
2024-05-09T03:29:25.142Z,7.88
2024-05-09T03:32:26.157Z,7.81
2024-05-09T03:35:27.395Z,7.81
2024-05-09T03:38:26.044Z,7.8
2024-05-09T03:41:27.084Z,7.78
2024-05-09T03:44:28.527Z,7.76
2024-05-09T03:47:27.620Z,7.75
2024-05-09T03:50:30.654Z,7.74
2024-05-09T03:53:27.414Z,7.74
2024-05-09T03:56:28.619Z,7.75
2024-05-09T03:59:10.565Z,7.73
2024-05-09T04:02:08.586Z,7.69
2024-05-09T04:05:08.984Z,7.7
2024-05-09T04:08:11.550Z,7.71
2024-05-09T04:11:08.861Z,7.7
2024-05-09T04:14:09.312Z,7.77
2024-05-09T04:17:11.034Z,7.78
2024-05-09T04:20:10.758Z,7.8
2024-05-09T04:23:09.704Z,7.86
2024-05-09T04:26:10.572Z,7.93
2024-05-09T04:29:08.598Z,8
2024-05-09T04:32:09.193Z,8.05
2024-05-09T04:35:10.958Z,8.09
2024-05-09T04:38:08.974Z,8.16
2024-05-09T04:41:09.365Z,8.2
2024-05-09T04:44:10.189Z,8.27
2024-05-09T04:47:09.170Z,8.3
2024-05-09T04:50:11.682Z,8.35
2024-05-09T04:53:10.809Z,8.38
2024-05-09T04:56:09.793Z,8.43
2024-05-09T04:59:06.920Z,8.51
2024-05-09T05:02:07.603Z,8.59
2024-05-09T05:05:13.360Z,8.7
2024-05-09T05:08:07.317Z,8.79
2024-05-09T05:11:07.960Z,8.81
2024-05-09T05:14:07.646Z,8.85
2024-05-09T05:17:07.697Z,8.89
2024-05-09T05:20:08.727Z,8.97
2024-05-09T05:23:07.564Z,9.04
2024-05-09T05:26:07.741Z,9.14
2024-05-09T05:29:08.573Z,9.27
2024-05-09T05:32:08.220Z,9.38
2024-05-09T05:35:08.350Z,9.46
2024-05-09T05:38:09.126Z,9.57
2024-05-09T05:41:10.015Z,9.63
2024-05-09T05:44:08.146Z,9.72
2024-05-09T05:47:08.533Z,9.79
2024-05-09T05:50:17.700Z,9.85
2024-05-09T05:53:08.687Z,9.96
2024-05-09T05:56:08.602Z,10.05
2024-05-09T05:59:07.396Z,10.13
2024-05-09T06:02:20.901Z,10.22
2024-05-09T06:05:07.718Z,10.33
2024-05-09T06:08:09.682Z,10.41
2024-05-09T06:11:07.516Z,10.49
2024-05-09T06:14:07.775Z,10.59
2024-05-09T06:17:08.652Z,10.75
2024-05-09T06:20:13.206Z,10.89
2024-05-09T06:23:08.867Z,11.05
2024-05-09T06:26:10.427Z,11.22
2024-05-09T06:29:08.473Z,11.38
2024-05-09T06:32:08.865Z,11.55
2024-05-09T06:35:09.778Z,11.77
2024-05-09T06:38:08.415Z,11.92
2024-05-09T06:41:08.758Z,12.03
2024-05-09T06:44:09.515Z,12.15
2024-05-09T06:47:09.320Z,12.15
2024-05-09T06:50:16.281Z,12.24
2024-05-09T06:53:10.059Z,12.34
2024-05-09T06:56:11.799Z,12.52
2024-05-09T06:59:13.622Z,12.76
2024-05-09T07:02:06.835Z,13.04
2024-05-09T07:05:06.500Z,13.29
2024-05-09T07:08:06.853Z,13.34
2024-05-09T07:11:07.454Z,13.32
2024-05-09T07:14:08.289Z,13.4
2024-05-09T07:17:09.816Z,13.49
2024-05-09T07:20:11.715Z,13.39
2024-05-09T07:23:07.178Z,13.46
2024-05-09T07:26:07.387Z,13.54
2024-05-09T07:29:08.104Z,13.57
2024-05-09T07:32:07.737Z,13.54
2024-05-09T07:35:07.972Z,13.49
2024-05-09T07:38:08.737Z,13.53
2024-05-09T07:41:10.478Z,13.53
2024-05-09T07:44:08.638Z,13.71
2024-05-09T07:48:14.380Z,13.89
2024-05-09T07:57:51.558Z,15.19
2024-05-09T08:02:05.281Z,15.13
2024-05-09T08:05:05.571Z,15.01
2024-05-09T08:08:06.213Z,14.86
2024-05-09T08:11:05.821Z,15.15
2024-05-09T08:14:06.547Z,15.79
2024-05-09T08:17:07.463Z,16.37
2024-05-09T08:20:06.304Z,16.95
2024-05-09T08:23:06.422Z,17.44
2024-05-09T08:26:48.936Z,17.78
2024-05-09T08:29:07.092Z,17.89
2024-05-09T08:32:07.365Z,18.02
2024-05-09T08:35:07.726Z,17.85
2024-05-09T08:38:08.542Z,17.83
2024-05-09T08:41:08.140Z,18.11
2024-05-09T08:44:08.339Z,18.53
2024-05-09T08:47:09.188Z,18.53
2024-05-09T08:50:11.027Z,18.46
2024-05-09T08:53:09.165Z,18.52
2024-05-09T08:56:09.561Z,18.46
2024-05-09T08:59:06.439Z,18.73
2024-05-09T09:02:04.594Z,18.9
2024-05-09T09:05:05.125Z,19.01
2024-05-09T09:08:06.977Z,19.24
2024-05-09T09:11:04.990Z,18.87
2024-05-09T09:14:05.973Z,18.5
2024-05-09T09:17:07.893Z,18.7
2024-05-09T09:20:09.006Z,19.17
2024-05-09T09:23:06.344Z,19.45
2024-05-09T09:26:08.120Z,19.79
2024-05-09T09:29:06.171Z,19.66
2024-05-09T09:32:06.533Z,19.86
2024-05-09T09:35:07.405Z,20.2
2024-05-09T09:38:06.112Z,20.36
2024-05-09T09:41:06.495Z,20.43
2024-05-09T09:44:07.147Z,20.29
2024-05-09T09:47:06.892Z,20.08
2024-05-09T09:50:09.727Z,20.18
2024-05-09T09:53:07.700Z,20.57
2024-05-09T09:56:08.550Z,20.69
2024-05-09T09:59:03.781Z,20.67
2024-05-09T10:02:04.594Z,20.64
2024-05-09T10:05:06.201Z,20.12
2024-05-09T10:08:04.075Z,19.91
2024-05-09T10:11:04.585Z,19.57
2024-05-09T10:14:05.690Z,19.76
2024-05-09T10:17:03.757Z,19.62
2024-05-09T10:20:09.605Z,19.6
2024-05-09T10:23:06.067Z,19.85
2024-05-09T10:26:04.066Z,19.95
2024-05-09T10:29:04.587Z,20.06
2024-05-09T10:32:25.964Z,20.15
2024-05-09T10:35:04.847Z,19.82
2024-05-09T10:38:05.070Z,19.44
2024-05-09T10:41:05.707Z,19.15
2024-05-09T10:44:05.377Z,19.18
2024-05-09T10:47:05.592Z,19.09
2024-05-09T10:50:10.310Z,18.83
2024-05-09T10:53:07.928Z,18.77
2024-05-09T10:56:05.976Z,19.07
2024-05-09T10:59:03.453Z,19.66
2024-05-09T11:02:05.304Z,19.7
2024-05-09T11:05:03.276Z,19.44
2024-05-09T11:08:03.559Z,19.29
2024-05-09T11:11:04.405Z,19.62
2024-05-09T11:14:03.828Z,19.9
2024-05-09T11:17:04.377Z,20.29
2024-05-09T11:20:10.624Z,20.78
2024-05-09T11:23:04.322Z,20.93
2024-05-09T11:26:04.752Z,21.04
2024-05-09T11:29:05.777Z,20.87
2024-05-09T11:32:04.607Z,20.26
2024-05-09T11:35:04.813Z,19.67
2024-05-09T11:38:05.482Z,19.39
2024-05-09T11:41:04.980Z,19.08
2024-05-09T11:44:05.165Z,18.98
2024-05-09T11:47:05.767Z,18.86
2024-05-09T11:50:08.194Z,18.41
2024-05-09T11:53:05.506Z,18.25
2024-05-09T11:56:06.026Z,18.62
2024-05-09T11:59:04.918Z,18.92
2024-05-09T12:02:02.953Z,19.52
2024-05-09T12:05:03.484Z,19.96
2024-05-09T12:08:04.336Z,20.21
2024-05-09T12:11:03.229Z,20.45
2024-05-09T12:14:04.079Z,20.84
2024-05-09T12:17:06.137Z,20.99
2024-05-09T12:20:07.032Z,20.99
2024-05-09T12:23:04.645Z,20.99
2024-05-09T12:26:05.471Z,21.15
2024-05-09T12:29:04.118Z,21.06
2024-05-09T12:32:04.439Z,21.1
2024-05-09T12:35:05.052Z,21.38
2024-05-09T12:38:04.684Z,21.58
2024-05-09T12:41:04.867Z,21.61
2024-05-09T12:44:05.597Z,21.85
2024-05-09T12:47:06.412Z,21.92
2024-05-09T12:50:06.360Z,21.37
2024-05-09T12:53:05.377Z,20.79
2024-05-09T12:56:08.785Z,20.63
2024-05-09T12:59:03.862Z,20.6
2024-05-09T13:02:04.402Z,20.71
2024-05-09T13:05:05.272Z,20.7
2024-05-09T13:08:03.879Z,20.86
2024-05-09T13:11:04.195Z,21.01
2024-05-09T13:14:05.423Z,21.18
2024-05-09T13:17:03.327Z,21.35
2024-05-09T13:20:05.509Z,21.47
2024-05-09T13:23:04.929Z,21.53
2024-05-09T13:26:03.276Z,21.53
2024-05-09T13:29:03.592Z,21.43
2024-05-09T13:32:04.402Z,21.25
2024-05-09T13:35:04.047Z,20.78
2024-05-09T13:38:04.701Z,20.37
2024-05-09T13:41:04.841Z,20.1
2024-05-09T13:44:06.596Z,20.2
2024-05-09T13:47:04.718Z,20.17
2024-05-09T13:50:06.952Z,20.42
2024-05-09T13:53:07.889Z,20.52
2024-05-09T13:56:05.013Z,20.45
2024-05-09T13:59:04.383Z,20.25
2024-05-09T14:02:05.314Z,20.29
2024-05-09T14:05:03.818Z,20.21
2024-05-09T14:08:03.970Z,20.12
2024-05-09T14:11:04.687Z,20.15
2024-05-09T14:14:03.754Z,20.09
2024-05-09T14:17:04.190Z,19.74
2024-05-09T14:20:06.204Z,19.48
2024-05-09T14:23:03.618Z,19.37
2024-05-09T14:26:03.868Z,19.43
2024-05-09T14:29:04.682Z,19.48
2024-05-09T14:32:04.389Z,19.5
2024-05-09T14:35:04.593Z,19.56
2024-05-09T14:38:05.106Z,19.66
2024-05-09T14:41:05.886Z,19.58
2024-05-09T14:47:04.525Z,19.7
2024-05-09T14:50:06.921Z,19.83
2024-05-09T14:53:04.235Z,19.85
2024-05-09T14:56:04.614Z,19.77
2024-05-09T14:59:04.425Z,19.79
2024-05-09T15:02:03.179Z,19.82
2024-05-09T15:05:03.535Z,19.78
2024-05-09T15:08:03.966Z,19.67
2024-05-09T15:11:03.716Z,19.49
2024-05-09T15:14:04.381Z,19.43
2024-05-09T15:17:05.316Z,19.4
2024-05-09T15:20:07.431Z,19.37
2024-05-09T15:23:04.329Z,19.42
2024-05-09T15:26:05.115Z,19.43
2024-05-09T15:29:04.765Z,19.37
2024-05-09T15:32:04.991Z,19.31
2024-05-09T15:35:05.580Z,19.28
2024-05-09T15:38:07.328Z,19.18
2024-05-09T15:41:05.366Z,19.11
2024-05-09T15:44:05.779Z,19.11
2024-05-09T15:47:07.510Z,19.04
2024-05-09T15:50:07.964Z,18.9
2024-05-09T15:53:06.183Z,18.78
2024-05-09T15:56:06.732Z,18.69
2024-05-09T15:59:03.437Z,18.68
2024-05-09T16:02:03.850Z,18.64
2024-05-09T16:05:04.659Z,18.57
2024-05-09T16:08:04.176Z,18.52
2024-05-09T16:11:04.466Z,18.39
2024-05-09T16:14:05.595Z,18.29
2024-05-09T16:17:04.451Z,18.19
2024-05-09T16:20:07.054Z,18.14
2024-05-09T16:23:05.222Z,18.11
2024-05-09T16:26:04.876Z,18.11
2024-05-09T16:29:04.945Z,18.06
2024-05-09T16:32:05.619Z,17.99
2024-05-09T16:35:07.346Z,17.93
2024-05-09T16:38:05.336Z,17.91
2024-05-09T16:41:05.833Z,17.91
2024-05-09T16:44:07.659Z,18.02
2024-05-09T16:47:05.628Z,17.99
2024-05-09T16:50:08.356Z,17.96
2024-05-09T16:53:07.288Z,17.93
2024-05-09T16:56:05.692Z,17.9
2024-05-09T16:59:03.945Z,17.86
2024-05-09T17:02:04.861Z,17.73
2024-05-09T17:05:04.631Z,17.53
2024-05-09T17:08:04.655Z,17.29
2024-05-09T17:11:05.412Z,16.92
2024-05-09T17:14:04.318Z,16.73
2024-05-09T17:17:07.013Z,16.59
2024-05-09T17:20:08.536Z,16.44
2024-05-09T17:23:05.938Z,16.32
2024-05-09T17:26:05.924Z,16.21
2024-05-09T17:29:09.314Z,16.12
2024-05-09T17:32:05.419Z,16.04
2024-05-09T17:40:35.171Z,15.87
2024-05-09T17:44:24.429Z,15.8
2024-05-09T17:47:24.803Z,15.73
2024-05-09T17:50:27.914Z,15.69
2024-05-09T17:53:24.221Z,15.66
2024-05-09T17:56:24.350Z,15.63
2024-05-09T17:59:24.526Z,15.62
2024-05-09T18:02:26.063Z,15.56
2024-05-09T18:05:24.925Z,15.52
2024-05-09T18:08:25.776Z,15.51
2024-05-09T18:11:27.236Z,15.51
2024-05-09T18:14:25.794Z,15.48
2024-05-09T18:17:26.829Z,15.47
2024-05-09T18:20:32.537Z,15.43
2024-05-09T18:23:26.531Z,15.41
2024-05-09T18:26:58.952Z,15.36
2024-05-09T18:29:29.118Z,15.29
2024-05-09T18:32:27.855Z,15.21
2024-05-09T18:35:27.648Z,15.15
2024-05-09T18:38:28.324Z,15.06
2024-05-09T18:41:29.949Z,15.02
2024-05-09T18:44:28.413Z,14.97
2024-05-09T18:47:29.336Z,14.93
2024-05-09T18:50:24.677Z,14.91
2024-05-09T18:53:20.599Z,14.89
2024-05-09T18:56:29.110Z,14.83
2024-05-09T18:59:23.148Z,14.76
2024-05-09T19:02:23.719Z,14.68
2024-05-09T19:05:23.159Z,14.6
2024-05-09T19:08:23.779Z,14.52
2024-05-09T19:11:24.136Z,14.43
2024-05-09T19:14:24.481Z,14.35
2024-05-09T19:17:25.157Z,14.25
2024-05-09T19:20:28.640Z,14.15
2024-05-09T19:23:26.778Z,14.05
2024-05-09T19:26:25.417Z,13.95
2024-05-09T19:29:26.488Z,13.87
2024-05-09T19:32:28.054Z,13.8
2024-05-09T19:35:26.531Z,13.71
2024-05-09T19:38:27.852Z,13.63
2024-05-09T19:41:29.489Z,13.52
2024-05-09T19:44:28.132Z,13.43
2024-05-09T19:47:28.670Z,13.38
2024-05-09T19:50:32.317Z,13.34
2024-05-09T19:53:28.963Z,13.3
2024-05-09T19:56:29.314Z,13.28
2024-05-09T19:59:11.986Z,13.24
2024-05-09T20:02:11.983Z,13.23
2024-05-09T20:05:12.139Z,13.23
2024-05-09T20:08:23.300Z,13.24
2024-05-09T20:11:23.579Z,13.21
2024-05-09T20:14:24.375Z,13.18
2024-05-09T20:17:24.687Z,13.18
2024-05-09T20:20:28.827Z,13.17
2024-05-09T20:23:24.635Z,13.16
2024-05-09T20:26:26.173Z,13.15
2024-05-09T20:29:27.080Z,13.16
2024-05-09T20:32:25.339Z,13.15
2024-05-09T20:35:25.515Z,13.14
2024-05-09T20:38:26.944Z,13.13
2024-05-09T20:41:25.701Z,13.1
2024-05-09T20:44:26.151Z,13.07
2024-05-09T20:47:26.524Z,13.06
2024-05-09T20:50:32.628Z,13.01
2024-05-09T20:53:27.418Z,12.99
2024-05-09T20:56:28.916Z,12.96
2024-05-09T20:59:10.946Z,12.95
2024-05-09T21:02:11.655Z,12.95
2024-05-09T21:05:12.015Z,12.92
2024-05-09T21:08:25.169Z,12.91
2024-05-09T21:11:22.911Z,12.89
2024-05-09T21:14:23.918Z,12.84
2024-05-09T21:17:25.466Z,12.8
2024-05-09T21:20:28.218Z,12.78
2024-05-09T21:23:25.149Z,12.77
2024-05-09T21:26:25.666Z,12.75
2024-05-09T21:29:24.596Z,12.72
2024-05-09T21:32:25.759Z,12.72
2024-05-09T21:35:30.411Z,12.73
2024-05-09T21:38:26.664Z,12.73
2024-05-09T21:41:26.848Z,12.72
2024-05-09T21:44:28.318Z,12.72
2024-05-09T21:47:27.018Z,12.72
2024-05-09T21:50:31.548Z,12.7
2024-05-09T21:53:29.457Z,12.69
2024-05-09T21:56:28.000Z,12.7
2024-05-09T21:59:09.456Z,12.69
2024-05-09T22:07:31.060Z,12.63
2024-05-09T22:11:23.920Z,12.6
2024-05-09T22:14:21.455Z,12.59
2024-05-09T22:17:21.596Z,12.59
2024-05-09T22:20:25.854Z,12.55
2024-05-09T22:23:22.839Z,12.51
2024-05-09T22:26:21.444Z,12.49
2024-05-09T22:34:49.140Z,12.46
2024-05-09T22:38:39.877Z,12.42
2024-05-09T22:41:40.172Z,12.37
2024-05-09T22:44:41.572Z,12.31
2024-05-09T22:47:39.424Z,12.25
2024-05-09T22:50:39.536Z,12.19
2024-05-09T22:53:40.200Z,12.11
2024-05-09T22:56:41.047Z,11.9
2024-05-09T23:04:30.585Z,11.57
2024-05-09T23:08:22.302Z,11.36
2024-05-09T23:11:22.389Z,11.32
2024-05-09T23:14:22.830Z,11.28
2024-05-09T23:17:24.556Z,11.24
2024-05-09T23:20:29.508Z,11.18
2024-05-09T23:23:22.437Z,11.11
2024-05-09T23:26:22.991Z,11.04
2024-05-09T23:29:25.565Z,10.97
2024-05-09T23:32:23.534Z,10.88
2024-05-09T23:35:23.818Z,10.8
2024-05-09T23:38:24.716Z,10.71
2024-05-09T23:41:23.295Z,10.61
2024-05-09T23:44:23.539Z,10.48
2024-05-09T23:47:24.359Z,10.39
2024-05-09T23:50:27.008Z,10.31
2024-05-09T23:53:24.035Z,10.26
2024-05-09T23:56:24.688Z,10.2
2024-05-09T23:59:04.644Z,10.16
